createdAt,value
2018-04-10T00:01:22.554Z,3.83
2018-04-10T00:03:50.821Z,4.40
2018-04-10T00:06:19.095Z,4.10
2018-04-10T00:08:47.369Z,3.57
2018-04-10T00:11:15.642Z,4.20
2018-04-10T00:13:43.891Z,3.70
2018-04-10T00:16:11.369Z,3.97
2018-04-10T00:18:39.629Z,3.43
2018-04-10T00:21:07.132Z,4.47
2018-04-10T00:23:34.667Z,3.80
2018-04-10T00:26:02.939Z,4.30
2018-04-10T00:28:31.201Z,4.20
2018-04-10T00:30:59.464Z,3.93
2018-04-10T00:33:27.051Z,4.10
2018-04-10T00:35:55.303Z,3.90
2018-04-10T00:38:22.791Z,3.97
2018-04-10T00:40:51.353Z,3.57
2018-04-10T00:43:19.611Z,3.90
2018-04-10T00:45:47.097Z,4.37
2018-04-10T00:48:14.651Z,4.30
2018-04-10T00:50:43.023Z,3.97
2018-04-10T00:53:23.149Z,4.83
2018-04-10T00:55:50.656Z,4.40
2018-04-10T00:58:18.139Z,3.70
2018-04-10T01:00:45.655Z,3.83
2018-04-10T01:03:13.148Z,4.40
2018-04-10T01:05:40.639Z,5.47
2018-04-10T01:08:08.147Z,3.73
2018-04-10T01:10:35.664Z,4.20
2018-04-10T01:13:03.940Z,4.10
2018-04-10T01:15:32.197Z,3.83
2018-04-10T01:17:59.705Z,4.27
2018-04-10T01:20:27.228Z,4.20
2018-04-10T01:22:55.579Z,4.03
2018-04-10T01:25:23.176Z,3.93
2018-04-10T01:27:50.726Z,3.70
2018-04-10T01:30:18.970Z,4.40
2018-04-10T01:32:46.475Z,4.33
2018-04-10T01:35:13.967Z,3.60
2018-04-10T01:37:41.446Z,4.53
2018-04-10T01:40:08.937Z,4.90
2018-04-10T01:42:36.437Z,4.70
2018-04-10T01:45:03.913Z,4.60
2018-04-10T01:47:31.393Z,4.67
2018-04-10T01:49:59.661Z,4.17
2018-04-10T01:52:27.900Z,3.93
2018-04-10T01:54:56.939Z,4.03
2018-04-10T01:57:25.209Z,3.80
2018-04-10T01:59:53.449Z,4.00
2018-04-10T02:02:20.951Z,4.20
2018-04-10T02:04:48.439Z,4.33
2018-04-10T02:07:15.957Z,4.20
2018-04-10T02:09:44.215Z,4.10
2018-04-10T02:12:12.471Z,4.13
2018-04-10T02:14:39.975Z,4.60
2018-04-10T02:17:07.480Z,4.30
2018-04-10T02:19:34.995Z,4.47
2018-04-10T02:22:02.514Z,4.53
2018-04-10T02:24:30.767Z,3.70
2018-04-10T02:26:58.304Z,4.20
2018-04-10T02:29:25.828Z,4.50
2018-04-10T02:31:53.370Z,4.80
2018-04-10T02:34:21.609Z,4.90
2018-04-10T02:36:49.109Z,4.57
2018-04-10T02:39:17.349Z,4.10
2018-04-10T02:41:44.860Z,4.87
2018-04-10T02:44:12.347Z,5.00
2018-04-10T02:46:39.838Z,4.07
2018-04-10T02:49:08.132Z,4.47
2018-04-10T02:51:35.624Z,5.30
2018-04-10T02:54:03.127Z,4.90
2018-04-10T02:56:31.409Z,4.93
2018-04-10T02:58:59.665Z,4.20
2018-04-10T03:01:27.159Z,4.97
2018-04-10T03:03:54.668Z,4.57
2018-04-10T03:06:22.159Z,4.30
2018-04-10T03:08:50.419Z,4.67
2018-04-10T03:11:18.734Z,4.60
2018-04-10T03:13:46.245Z,4.80
2018-04-10T03:16:13.817Z,4.50
2018-04-10T03:18:42.086Z,5.77
2018-04-10T03:21:10.354Z,4.73
2018-04-10T03:23:37.851Z,4.63
2018-04-10T03:26:05.334Z,5.03
2018-04-10T03:28:32.826Z,4.80
2018-04-10T03:31:01.115Z,5.03
2018-04-10T03:33:29.370Z,5.30
2018-04-10T03:35:56.864Z,5.00
2018-04-10T03:38:24.398Z,5.10
2018-04-10T03:40:52.651Z,4.43
2018-04-10T03:43:20.143Z,4.83
2018-04-10T03:45:47.649Z,4.23
2018-04-10T03:48:15.125Z,7.60
2018-04-10T03:50:42.707Z,5.20
2018-04-10T03:53:10.972Z,4.93
2018-04-10T03:55:39.234Z,4.90
2018-04-10T03:58:06.819Z,4.23
2018-04-10T04:00:34.317Z,5.83
2018-04-10T04:03:01.811Z,5.83
2018-04-10T04:05:30.090Z,4.63
2018-04-10T04:07:58.374Z,4.87
2018-04-10T04:10:26.635Z,4.53
2018-04-10T04:12:54.887Z,4.87
2018-04-10T04:15:22.392Z,4.23
2018-04-10T04:17:49.884Z,3.90
2018-04-10T04:20:29.046Z,4.40
2018-04-10T04:22:56.544Z,5.37
2018-04-10T04:25:24.022Z,6.37
2018-04-10T04:27:51.533Z,5.80
2018-04-10T04:30:19.793Z,4.50
2018-04-10T04:32:48.073Z,4.23
2018-04-10T04:35:16.363Z,5.60
2018-04-10T04:37:43.859Z,4.90
2018-04-10T04:40:11.349Z,8.47
2018-04-10T04:42:38.839Z,5.10
2018-04-10T04:45:06.335Z,4.90
2018-04-10T04:47:33.852Z,5.30
2018-04-10T04:50:01.350Z,4.47
2018-04-10T04:52:28.852Z,5.10
2018-04-10T04:54:57.267Z,4.53
2018-04-10T04:57:24.787Z,4.63
2018-04-10T04:59:53.071Z,5.10
2018-04-10T05:02:20.563Z,5.53
2018-04-10T05:04:48.067Z,4.70
2018-04-10T05:07:16.356Z,6.07
2018-04-10T05:09:43.847Z,4.90
2018-04-10T05:12:11.351Z,5.37
2018-04-10T05:14:39.661Z,6.63
2018-04-10T05:17:07.152Z,4.87
2018-04-10T05:19:34.628Z,6.67
2018-04-10T05:22:02.147Z,5.60
2018-04-10T05:24:29.666Z,5.20
2018-04-10T05:26:57.917Z,5.37
2018-04-10T05:29:25.409Z,4.40
2018-04-10T05:31:52.909Z,4.47
2018-04-10T05:34:20.393Z,4.60
2018-04-10T05:36:48.667Z,4.80
2018-04-10T05:39:16.917Z,5.60
2018-04-10T05:41:44.425Z,5.00
2018-04-10T05:44:11.932Z,4.87
2018-04-10T05:46:39.459Z,5.30
2018-04-10T05:49:06.979Z,4.80
2018-04-10T05:51:35.229Z,5.60
2018-04-10T05:54:02.810Z,5.17
2018-04-10T05:56:31.085Z,5.73
2018-04-10T05:58:59.370Z,6.03
2018-04-10T06:01:26.948Z,6.17
2018-04-10T06:03:54.479Z,7.50
2018-04-10T06:06:22.734Z,6.20
2018-04-10T06:08:50.209Z,6.17
2018-04-10T06:11:18.465Z,5.33
2018-04-10T06:13:45.991Z,5.30
2018-04-10T06:16:13.464Z,6.73
2018-04-10T06:18:40.979Z,6.50
2018-04-10T06:21:08.514Z,6.07
2018-04-10T06:23:36.779Z,7.60
2018-04-10T06:26:05.180Z,7.67
2018-04-10T06:28:32.728Z,7.80
2018-04-10T06:31:00.303Z,7.90
2018-04-10T06:33:27.791Z,8.30
2018-04-10T06:35:55.300Z,8.97
2018-04-10T06:38:22.862Z,9.70
2018-04-10T06:40:50.366Z,8.97
2018-04-10T06:43:17.871Z,9.57
2018-04-10T06:45:45.389Z,10.83
2018-04-10T06:48:12.915Z,10.03
2018-04-10T06:50:40.424Z,9.97
2018-04-10T06:53:08.687Z,10.07
2018-04-10T06:55:36.181Z,10.00
2018-04-10T06:58:03.734Z,10.40
2018-04-10T07:00:31.241Z,10.30
2018-04-10T07:02:58.752Z,11.67
2018-04-10T07:05:26.268Z,12.00
2018-04-10T07:07:53.855Z,12.03
2018-04-10T07:10:21.881Z,13.33
2018-04-10T07:12:49.388Z,13.17
2018-04-10T07:15:16.887Z,12.77
2018-04-10T07:17:44.414Z,13.00
2018-04-10T07:20:11.915Z,14.90
2018-04-10T07:22:39.530Z,14.70
2018-04-10T07:25:07.030Z,16.47
2018-04-10T07:27:34.541Z,16.17
2018-04-10T07:30:02.039Z,17.03
2018-04-10T07:32:29.559Z,15.63
2018-04-10T07:34:57.081Z,15.33
2018-04-10T07:37:25.350Z,16.20
2018-04-10T07:39:53.616Z,15.97
2018-04-10T07:42:21.195Z,16.33
2018-04-10T07:44:49.444Z,16.77
2018-04-10T07:47:16.935Z,16.67
2018-04-10T07:49:44.456Z,16.67
2018-04-10T07:52:12.053Z,16.20
2018-04-10T07:54:39.555Z,17.90
2018-04-10T07:57:07.041Z,15.73
2018-04-10T07:59:35.305Z,16.80
2018-04-10T08:02:02.803Z,17.80
2018-04-10T08:04:30.293Z,15.97
2018-04-10T08:06:57.908Z,16.73
2018-04-10T08:09:25.462Z,16.77
2018-04-10T08:11:53.730Z,18.73
2018-04-10T08:14:22.019Z,17.70
2018-04-10T08:16:49.575Z,16.97
2018-04-10T08:19:17.071Z,17.40
2018-04-10T08:21:44.595Z,16.93
2018-04-10T08:24:12.109Z,16.63
2018-04-10T08:26:39.642Z,16.50
2018-04-10T08:29:07.158Z,16.60
2018-04-10T08:31:34.714Z,15.90
2018-04-10T08:34:02.213Z,17.07
2018-04-10T08:36:29.713Z,16.70
2018-04-10T08:38:58.087Z,15.90
2018-04-10T08:41:26.337Z,16.03
2018-04-10T08:43:53.851Z,17.17
2018-04-10T08:46:21.391Z,15.50
2018-04-10T08:48:48.891Z,16.33
2018-04-10T08:51:16.397Z,15.83
2018-04-10T08:53:44.675Z,16.73
2018-04-10T08:56:12.256Z,16.83
2018-04-10T08:58:39.795Z,15.23
2018-04-10T09:01:07.320Z,16.23
2018-04-10T09:03:34.921Z,15.77
2018-04-10T09:06:02.419Z,16.30
2018-04-10T09:08:30.025Z,15.53
2018-04-10T09:10:57.612Z,15.47
2018-04-10T09:13:25.121Z,15.67
2018-04-10T09:15:53.384Z,16.60
2018-04-10T09:18:20.890Z,15.20
2018-04-10T09:20:48.382Z,15.50
2018-04-10T09:23:15.866Z,14.77
2018-04-10T09:25:44.126Z,14.00
2018-04-10T09:28:11.640Z,14.57
2018-04-10T09:30:39.139Z,14.50
2018-04-10T09:33:06.721Z,14.00
2018-04-10T09:35:34.971Z,14.23
2018-04-10T09:38:02.465Z,14.57
2018-04-10T09:40:29.955Z,13.97
2018-04-10T09:42:57.450Z,13.30
2018-04-10T09:45:24.944Z,14.97
2018-04-10T09:47:52.446Z,14.57
2018-04-10T09:50:19.963Z,13.77
2018-04-10T09:52:47.471Z,13.77
2018-04-10T09:55:14.975Z,11.83
2018-04-10T09:57:42.476Z,13.70
2018-04-10T10:00:10.080Z,13.00
2018-04-10T10:02:37.599Z,12.00
2018-04-10T10:05:05.086Z,12.67
2018-04-10T10:07:33.467Z,13.43
2018-04-10T10:10:00.977Z,11.80
2018-04-10T10:12:28.584Z,12.57
2018-04-10T10:14:56.104Z,12.30
2018-04-10T10:17:23.598Z,12.03
2018-04-10T10:19:51.129Z,11.13
2018-04-10T10:22:19.427Z,9.80
2018-04-10T10:24:46.922Z,11.80
2018-04-10T10:27:14.445Z,10.67
2018-04-10T10:29:41.993Z,11.27
2018-04-10T10:32:09.557Z,11.10
2018-04-10T10:34:37.057Z,11.00
2018-04-10T10:37:04.559Z,10.30
2018-04-10T10:39:32.827Z,10.90
2018-04-10T10:42:01.107Z,10.47
2018-04-10T10:44:29.363Z,10.70
2018-04-10T10:46:56.896Z,10.10
2018-04-10T10:49:24.404Z,10.33
2018-04-10T10:51:52.678Z,9.70
2018-04-10T10:54:20.930Z,10.27
2018-04-10T10:56:48.419Z,9.80
2018-04-10T10:59:15.921Z,10.20
2018-04-10T11:01:43.526Z,9.87
2018-04-10T11:04:11.101Z,9.37
2018-04-10T11:06:38.600Z,11.67
2018-04-10T11:09:07.128Z,9.27
2018-04-10T11:11:34.627Z,10.50
2018-04-10T11:14:02.198Z,9.20
2018-04-10T11:16:29.692Z,8.23
2018-04-10T11:18:57.195Z,10.27
2018-04-10T11:21:24.691Z,8.97
2018-04-10T11:23:52.952Z,9.33
2018-04-10T11:26:20.533Z,10.10
2018-04-10T11:28:48.778Z,8.60
2018-04-10T11:31:16.368Z,9.00
2018-04-10T11:33:44.660Z,11.37
2018-04-10T11:36:12.203Z,15.50
2018-04-10T11:38:40.453Z,16.07
2018-04-10T11:41:08.722Z,16.43
2018-04-10T11:43:36.223Z,17.93
2018-04-10T11:46:03.744Z,17.50
2018-04-10T11:48:31.251Z,16.13
2018-04-10T11:50:58.780Z,14.20
2018-04-10T11:53:26.286Z,14.33
2018-04-10T11:55:53.781Z,15.10
2018-04-10T11:58:22.180Z,14.07
2018-04-10T12:00:49.669Z,13.57
2018-04-10T12:03:17.175Z,15.17
2018-04-10T12:05:45.577Z,14.43
2018-04-10T12:08:13.090Z,15.60
2018-04-10T12:10:41.386Z,15.03
2018-04-10T12:13:09.653Z,12.93
2018-04-10T12:15:37.910Z,13.10
2018-04-10T12:18:05.435Z,14.70
2018-04-10T12:20:32.925Z,17.23
2018-04-10T12:23:00.413Z,15.20
2018-04-10T12:25:28.075Z,15.20
2018-04-10T12:27:55.606Z,17.90
2018-04-10T12:30:23.101Z,12.90
2018-04-10T12:32:51.663Z,14.10
2018-04-10T12:35:19.939Z,15.53
2018-04-10T12:37:47.517Z,14.90
2018-04-10T12:40:15.012Z,16.67
2018-04-10T12:42:42.519Z,17.10
2018-04-10T12:45:10.030Z,16.83
2018-04-10T12:47:37.521Z,15.00
2018-04-10T12:50:05.786Z,15.20
2018-04-10T12:52:34.052Z,14.00
2018-04-10T12:55:02.454Z,14.53
2018-04-10T12:57:30.007Z,16.30
2018-04-10T12:59:57.585Z,17.70
2018-04-10T13:02:25.089Z,15.60
2018-04-10T13:04:52.596Z,15.57
2018-04-10T13:07:20.104Z,12.40
2018-04-10T13:09:47.715Z,14.63
2018-04-10T13:12:15.212Z,15.00
2018-04-10T13:14:42.698Z,11.30
2018-04-10T13:17:10.972Z,10.93
2018-04-10T13:19:39.254Z,14.80
2018-04-10T13:22:07.527Z,12.70
2018-04-10T13:24:35.785Z,12.00
2018-04-10T13:27:04.068Z,11.90
2018-04-10T13:29:32.318Z,11.87
2018-04-10T13:31:59.901Z,12.17
2018-04-10T13:34:28.163Z,9.50
2018-04-10T13:36:55.642Z,9.30
2018-04-10T13:39:23.174Z,8.20
2018-04-10T13:41:50.753Z,9.20
2018-04-10T13:44:19.023Z,8.90
2018-04-10T13:46:47.277Z,6.97
2018-04-10T13:49:14.847Z,6.67
2018-04-10T13:51:43.133Z,7.60
2018-04-10T13:54:11.646Z,7.20
2018-04-10T13:56:39.134Z,7.37
2018-04-10T13:59:06.606Z,6.30
2018-04-10T14:01:34.119Z,7.03
2018-04-10T14:04:01.597Z,5.63
2018-04-10T14:06:29.201Z,5.23
2018-04-10T14:08:57.446Z,5.57
2018-04-10T14:11:24.964Z,5.03
2018-04-10T14:13:52.495Z,4.40
2018-04-10T14:16:20.037Z,4.63
2018-04-10T14:18:48.282Z,4.53
2018-04-10T14:21:15.757Z,4.30
2018-04-10T14:23:43.263Z,3.60
2018-04-10T14:26:10.744Z,4.20
2018-04-10T14:28:38.233Z,3.43
2018-04-10T14:31:06.490Z,3.10
2018-04-10T14:33:34.773Z,3.30
2018-04-10T14:36:02.259Z,2.90
2018-04-10T14:38:29.763Z,2.30
2018-04-10T14:40:57.286Z,3.03
2018-04-10T14:43:24.783Z,2.40
2018-04-10T14:45:52.406Z,3.07
2018-04-10T14:48:19.912Z,3.40
2018-04-10T14:50:47.426Z,3.20
2018-04-10T14:53:14.996Z,3.23
2018-04-10T14:55:42.527Z,3.90
2018-04-10T14:58:10.009Z,3.10
2018-04-10T15:00:37.510Z,2.53
2018-04-10T15:03:05.784Z,2.47
2018-04-10T15:05:34.035Z,2.60
2018-04-10T15:08:02.351Z,2.40
2018-04-10T15:10:29.907Z,2.30
2018-04-10T15:12:57.483Z,2.43
2018-04-10T15:15:24.984Z,2.70
2018-04-10T15:17:52.465Z,2.57
2018-04-10T15:20:20.722Z,2.87
2018-04-10T15:22:48.205Z,2.53
2018-04-10T15:25:16.473Z,2.03
2018-04-10T15:27:44.731Z,1.80
2018-04-10T15:30:12.323Z,2.27
2018-04-10T15:32:39.801Z,2.53
2018-04-10T15:35:07.417Z,2.50
2018-04-10T15:37:35.706Z,4.07
2018-04-10T15:40:03.194Z,2.53
2018-04-10T15:42:30.685Z,2.73
2018-04-10T15:44:58.297Z,2.90
2018-04-10T15:47:25.887Z,2.73
2018-04-10T15:49:53.380Z,2.50
2018-04-10T15:52:21.635Z,3.20
2018-04-10T15:54:49.213Z,2.20
2018-04-10T15:57:17.463Z,2.00
2018-04-10T15:59:44.955Z,2.30
2018-04-10T16:02:12.463Z,2.10
2018-04-10T16:04:40.072Z,2.03
2018-04-10T16:07:07.567Z,2.40
2018-04-10T16:09:35.062Z,2.53
2018-04-10T16:12:03.315Z,2.70
2018-04-10T16:14:30.813Z,2.60
2018-04-10T16:16:59.061Z,3.20
2018-04-10T16:19:26.665Z,3.10
2018-04-10T16:21:54.184Z,3.20
2018-04-10T16:24:22.444Z,3.77
2018-04-10T16:26:49.963Z,3.67
2018-04-10T16:29:17.499Z,3.30
2018-04-10T16:31:45.067Z,2.87
2018-04-10T16:34:12.553Z,3.60
2018-04-10T16:36:40.043Z,2.77
2018-04-10T16:39:08.336Z,3.27
2018-04-10T16:41:35.821Z,2.97
2018-04-10T16:44:03.316Z,2.90
2018-04-10T16:46:30.793Z,2.77
2018-04-10T16:48:59.069Z,2.80
2018-04-10T16:51:27.355Z,3.07
2018-04-10T16:53:54.912Z,3.43
2018-04-10T16:56:22.403Z,4.13
2018-04-10T16:58:49.885Z,3.50
2018-04-10T17:01:17.385Z,3.40
2018-04-10T17:03:44.881Z,3.10
2018-04-10T17:06:12.371Z,3.33
2018-04-10T17:08:39.869Z,3.20
2018-04-10T17:11:07.373Z,3.40
2018-04-10T17:13:34.957Z,4.37
2018-04-10T17:16:03.230Z,3.17
2018-04-10T17:18:31.536Z,3.93
2018-04-10T17:20:59.009Z,4.33
2018-04-10T17:23:26.503Z,3.80
2018-04-10T17:25:54.033Z,4.07
2018-04-10T17:28:21.522Z,3.50
2018-04-10T17:30:49.794Z,3.70
2018-04-10T17:33:18.114Z,3.70
2018-04-10T17:35:45.613Z,3.40
2018-04-10T17:38:13.117Z,3.20
2018-04-10T17:40:40.593Z,3.23
2018-04-10T17:43:08.100Z,3.27
2018-04-10T17:45:36.368Z,2.90
2018-04-10T17:48:03.861Z,3.20
2018-04-10T17:50:31.407Z,3.73
2018-04-10T17:52:58.921Z,3.70
2018-04-10T17:55:26.642Z,2.80
2018-04-10T17:57:54.199Z,2.60
2018-04-10T18:00:21.707Z,3.30
2018-04-10T18:02:49.185Z,2.90
2018-04-10T18:05:17.486Z,2.93
2018-04-10T18:07:44.974Z,3.30
2018-04-10T18:10:12.496Z,3.73
2018-04-10T18:12:39.977Z,3.40
2018-04-10T18:15:07.514Z,3.43
2018-04-10T18:17:35.037Z,3.87
2018-04-10T18:20:03.321Z,4.00
2018-04-10T18:22:31.571Z,3.43
2018-04-10T18:24:59.875Z,4.10
2018-04-10T18:27:28.139Z,3.73
2018-04-10T18:29:56.394Z,3.80
2018-04-10T18:32:23.887Z,4.10
2018-04-10T18:34:51.447Z,3.77
2018-04-10T18:37:18.993Z,3.67
2018-04-10T18:39:47.249Z,3.50
2018-04-10T18:42:14.727Z,3.93
2018-04-10T18:44:42.983Z,3.33
2018-04-10T18:47:11.234Z,3.60
2018-04-10T18:49:38.823Z,3.63
2018-04-10T18:52:07.084Z,3.63
2018-04-10T18:54:34.657Z,4.40
2018-04-10T18:57:02.923Z,5.17
2018-04-10T18:59:31.336Z,5.20
2018-04-10T19:01:58.876Z,4.00
2018-04-10T19:04:27.137Z,4.17
2018-04-10T19:06:55.401Z,4.60
2018-04-10T19:09:22.896Z,3.80
2018-04-10T19:11:50.407Z,4.50
2018-04-10T19:14:17.995Z,4.47
2018-04-10T19:16:45.493Z,5.10
2018-04-10T19:19:12.970Z,5.63
2018-04-10T19:21:40.571Z,6.20
2018-04-10T19:24:08.064Z,6.20
2018-04-10T19:26:35.548Z,5.93
2018-04-10T19:29:03.041Z,5.63
2018-04-10T19:31:30.551Z,5.80
2018-04-10T19:33:58.045Z,5.60
2018-04-10T19:36:26.314Z,6.10
2018-04-10T19:38:54.599Z,5.57
2018-04-10T19:41:22.116Z,4.80
2018-04-10T19:43:50.431Z,5.20
2018-04-10T19:46:18.698Z,6.90
2018-04-10T19:48:46.999Z,4.97
2018-04-10T19:51:14.491Z,4.53
2018-04-10T19:53:41.979Z,4.40
2018-04-10T19:56:10.249Z,5.40
2018-04-10T19:58:38.525Z,4.20
2018-04-10T20:01:06.785Z,3.80
2018-04-10T20:03:34.369Z,4.50
2018-04-10T20:06:02.625Z,3.63
2018-04-10T20:08:30.112Z,3.43
2018-04-10T20:10:57.639Z,3.20
2018-04-10T20:13:25.127Z,3.40
2018-04-10T20:15:52.617Z,3.63
2018-04-10T20:18:20.106Z,3.90
2018-04-10T20:20:47.595Z,3.00
2018-04-10T20:23:15.151Z,2.07
2018-04-10T20:25:42.634Z,2.90
2018-04-10T20:28:10.135Z,3.00
2018-04-10T20:30:37.631Z,2.40
2018-04-10T20:33:05.161Z,2.87
2018-04-10T20:35:33.441Z,2.80
2018-04-10T20:38:01.719Z,3.23
2018-04-10T20:40:29.965Z,3.13
2018-04-10T20:42:57.549Z,3.30
2018-04-10T20:45:25.920Z,2.77
2018-04-10T20:47:54.183Z,3.30
2018-04-10T20:50:21.711Z,3.30
2018-04-10T20:52:49.214Z,4.50
2018-04-10T20:55:17.494Z,4.13
2018-04-10T20:57:44.990Z,4.13
2018-04-10T21:00:12.494Z,4.60
2018-04-10T21:02:40.767Z,6.33
2018-04-10T21:05:09.013Z,4.93
2018-04-10T21:07:36.510Z,5.23
2018-04-10T21:10:04.764Z,6.10
2018-04-10T21:12:32.358Z,6.20
2018-04-10T21:14:59.849Z,7.70
2018-04-10T21:17:27.325Z,7.30
2018-04-10T21:19:54.848Z,7.80
2018-04-10T21:22:22.386Z,6.67
2018-04-10T21:24:49.892Z,7.43
2018-04-10T21:27:17.387Z,7.53
2018-04-10T21:29:44.939Z,7.40
2018-04-10T21:32:13.197Z,7.70
2018-04-10T21:34:40.687Z,7.83
2018-04-10T21:37:08.199Z,7.10
2018-04-10T21:39:35.790Z,8.60
2018-04-10T21:42:03.368Z,8.33
2018-04-10T21:44:30.878Z,8.70
2018-04-10T21:46:58.373Z,9.50
2018-04-10T21:49:25.880Z,9.27
2018-04-10T21:51:53.470Z,10.13
2018-04-10T21:54:21.730Z,9.87
2018-04-10T21:56:49.227Z,9.90
2018-04-10T21:59:16.753Z,9.83
2018-04-10T22:01:45.014Z,9.10
2018-04-10T22:04:12.506Z,9.93
2018-04-10T22:06:40.011Z,8.23
2018-04-10T22:09:07.539Z,10.10
2018-04-10T22:11:35.061Z,8.73
2018-04-10T22:14:03.364Z,8.70
2018-04-10T22:16:30.848Z,8.57
2018-04-10T22:18:58.359Z,8.03
2018-04-10T22:21:25.919Z,8.33
2018-04-10T22:23:53.411Z,8.20
2018-04-10T22:26:20.890Z,7.70
2018-04-10T22:28:48.396Z,8.60
2018-04-10T22:31:15.934Z,7.90
2018-04-10T22:33:43.427Z,8.30
2018-04-10T22:36:10.922Z,9.27
2018-04-10T22:38:38.470Z,7.87
2018-04-10T22:41:06.750Z,9.63
2018-04-10T22:43:35.010Z,8.60
2018-04-10T22:46:03.304Z,9.33
2018-04-10T22:48:30.825Z,9.67
2018-04-10T22:50:58.406Z,9.90
2018-04-10T22:53:26.671Z,9.60
2018-04-10T22:55:54.941Z,10.13
2018-04-10T22:58:22.436Z,9.97
2018-04-10T23:00:49.990Z,9.63
2018-04-10T23:11:52.477Z,10.17
2018-04-10T23:14:40.647Z,11.03
2018-04-10T23:17:08.937Z,10.27
2018-04-10T23:19:37.203Z,11.03
2018-04-10T23:22:05.487Z,11.80
2018-04-10T23:24:33.758Z,11.10
2018-04-10T23:27:02.035Z,11.20
2018-04-10T23:29:30.298Z,12.90
2018-04-10T23:31:57.821Z,13.33
2018-04-10T23:34:25.333Z,13.83
2018-04-10T23:36:53.596Z,14.30
2018-04-10T23:39:21.182Z,15.67
2018-04-10T23:41:48.692Z,15.63
2018-04-10T23:44:16.213Z,15.90
2018-04-10T23:46:43.756Z,14.43
2018-04-10T23:49:11.282Z,15.67
2018-04-10T23:51:38.784Z,15.23
2018-04-10T23:54:06.309Z,16.93
2018-04-10T23:56:34.615Z,15.40
2018-04-10T23:59:02.114Z,16.37
